Time;durP1;ratioP1;P1;durP2;ratioP2;P2;SDS_P1;SDS_P2;PMS_P1;PMS_P2;Temp;Humidity;BMP_temperature;BMP_pressure;BME280_temperature;BME280_humidity;BME280_pressure;Samples;Min_cycle;Max_cycle;Signal;HPM_P1;HPM_P2
2021/11/13 05:39:58;;;;;;;18.13;10.90;;;;;;;;;;4857997;29;20211;-86
2021/11/13 06:04:42;;;;;;;17.93;11.00;;;;;;;;;;4935202;29;20216;-75
2021/11/13 06:07:46;;;;;;;17.43;11.13;;;;;;;;;;4937353;29;20232;-75
2021/11/13 06:10:50;;;;;;;20.90;11.67;;;;;;;;;;4936628;29;20228;-74
2021/11/13 06:13:54;;;;;;;16.97;10.30;;;;;;;;;;4942973;23;20231;-71
2021/11/13 06:16:58;;;;;;;21.63;11.57;;;;;;;;;;4946961;29;20536;-71
2021/11/13 06:20:03;;;;;;;17.43;10.97;;;;;;;;;;4942324;29;20183;-71
2021/11/13 06:23:08;;;;;;;14.73;9.83;;;;;;;;;;4906551;29;20184;-71
2021/11/13 06:26:14;;;;;;;15.60;10.33;;;;;;;;;;4894086;29;20192;-71
2021/11/13 06:29:18;;;;;;;15.60;10.20;;;;;;;;;;4927380;29;20189;-71
2021/11/13 06:32:22;;;;;;;16.33;10.93;;;;;;;;;;4927260;29;20219;-71
2021/11/13 06:35:26;;;;;;;15.63;10.47;;;;;;;;;;4935451;29;20184;-71
2021/11/13 06:38:32;;;;;;;15.90;10.40;;;;;;;;;;4935432;29;20566;-71
2021/11/13 06:41:36;;;;;;;16.10;10.20;;;;;;;;;;4929453;29;20221;-71
2021/11/13 06:44:40;;;;;;;16.70;10.70;;;;;;;;;;4922609;29;20192;-71
2021/11/13 06:47:44;;;;;;;17.03;10.70;;;;;;;;;;4907283;29;20212;-71
2021/11/13 06:50:51;;;;;;;21.10;11.83;;;;;;;;;;4906708;29;20220;-71
2021/11/13 06:53:55;;;;;;;17.97;11.03;;;;;;;;;;4935357;29;20898;-71
2021/11/13 06:57:00;;;;;;;18.90;10.77;;;;;;;;;;4917401;29;20188;-71
2021/11/13 07:00:08;;;;;;;20.73;12.40;;;;;;;;;;4905226;29;20196;-71
2021/11/13 07:03:12;;;;;;;18.10;11.67;;;;;;;;;;4917416;29;20676;-71
2021/11/13 07:06:16;;;;;;;17.83;11.07;;;;;;;;;;4916516;29;20185;-71
2021/11/13 07:09:20;;;;;;;15.40;10.77;;;;;;;;;;4908303;29;20577;-71
2021/11/13 07:12:24;;;;;;;24.53;12.50;;;;;;;;;;4902019;29;20224;-71
2021/11/13 07:15:31;;;;;;;23.37;11.87;;;;;;;;;;4916616;29;20676;-71
2021/11/13 07:18:35;;;;;;;21.60;12.30;;;;;;;;;;4916579;29;20593;-71
2021/11/13 07:21:40;;;;;;;18.67;11.07;;;;;;;;;;4904430;29;20215;-71
2021/11/13 07:24:45;;;;;;;18.50;11.83;;;;;;;;;;4911664;29;20197;-70
2021/11/13 07:27:49;;;;;;;17.57;11.13;;;;;;;;;;4916117;29;20591;-71
2021/11/13 07:30:53;;;;;;;22.90;13.00;;;;;;;;;;4916684;29;20224;-71
2021/11/13 07:33:57;;;;;;;16.57;11.17;;;;;;;;;;4916393;29;20585;-71
2021/11/13 07:37:02;;;;;;;15.13;10.30;;;;;;;;;;4917366;29;20194;-71
2021/11/13 07:40:07;;;;;;;16.50;11.43;;;;;;;;;;4933765;29;20552;-71
2021/11/13 07:43:11;;;;;;;19.10;11.90;;;;;;;;;;4928840;29;20201;-71
2021/11/13 07:46:16;;;;;;;17.23;11.13;;;;;;;;;;4916919;29;20177;-71
2021/11/13 07:49:19;;;;;;;16.30;10.50;;;;;;;;;;4898127;29;20213;-71
2021/11/13 07:52:24;;;;;;;19.53;11.67;;;;;;;;;;4921860;29;20228;-71
2021/11/13 07:55:28;;;;;;;16.63;10.73;;;;;;;;;;4939707;29;20200;-70
2021/11/13 07:58:32;;;;;;;17.30;12.60;;;;;;;;;;4938607;29;20188;-71
2021/11/13 08:01:36;;;;;;;18.30;13.97;;;;;;;;;;4930006;29;20215;-71
2021/11/13 08:04:41;;;;;;;16.80;11.40;;;;;;;;;;4920622;29;20189;-72
2021/11/13 08:07:45;;;;;;;17.60;12.30;;;;;;;;;;4909185;29;20212;-74
2021/11/13 08:10:50;;;;;;;18.20;11.57;;;;;;;;;;4925865;29;20694;-73
2021/11/13 08:13:54;;;;;;;16.80;12.13;;;;;;;;;;4938672;29;20207;-72
2021/11/13 08:16:58;;;;;;;17.70;12.50;;;;;;;;;;4936358;29;20188;-71
2021/11/13 08:20:04;;;;;;;15.90;11.87;;;;;;;;;;4923628;29;20197;-72
2021/11/13 08:23:09;;;;;;;23.43;15.20;;;;;;;;;;4921566;29;20196;-72
2021/11/13 08:26:13;;;;;;;16.27;11.03;;;;;;;;;;4916828;29;20188;-72
2021/11/13 08:29:17;;;;;;;30.13;16.87;;;;;;;;;;4920660;29;20212;-72
2021/11/13 08:32:22;;;;;;;41.00;20.40;;;;;;;;;;4921000;29;20216;-72
2021/11/13 08:35:26;;;;;;;20.17;13.47;;;;;;;;;;4937143;29;20552;-72
2021/11/13 08:38:31;;;;;;;25.77;18.30;;;;;;;;;;4925943;29;20192;-74
2021/11/13 08:41:35;;;;;;;19.17;13.10;;;;;;;;;;4901127;29;20225;-73
2021/11/13 08:44:43;;;;;;;14.77;11.60;;;;;;;;;;4920991;29;20192;-69
2021/11/13 08:47:47;;;;;;;19.50;11.97;;;;;;;;;;4914680;28;20236;-70
2021/11/13 08:50:51;;;;;;;16.33;11.07;;;;;;;;;;4943109;28;20715;-69
2021/11/13 08:53:55;;;;;;;18.00;10.87;;;;;;;;;;4941976;29;20200;-70
2021/11/13 08:57:02;;;;;;;16.77;12.40;;;;;;;;;;4939047;29;20188;-71
2021/11/13 09:00:08;;;;;;;16.57;11.60;;;;;;;;;;4956717;29;20180;-71
2021/11/13 09:03:34;;;;;;;15.73;10.80;;;;;;;;;;4956806;28;20180;-71
2021/11/13 09:06:38;;;;;;;13.57;10.27;;;;;;;;;;4951838;29;20199;-71
2021/11/13 09:09:43;;;;;;;19.17;12.47;;;;;;;;;;4919654;29;20229;-71
2021/11/13 09:12:48;;;;;;;17.80;11.37;;;;;;;;;;4922296;29;20298;-71
2021/11/13 09:15:53;;;;;;;14.73;10.50;;;;;;;;;;4945828;29;20188;-71
2021/11/13 09:18:57;;;;;;;19.03;10.20;;;;;;;;;;4944143;29;20196;-71
2021/11/13 09:22:02;;;;;;;15.90;10.33;;;;;;;;;;4955531;29;20234;-71
2021/11/13 09:25:09;;;;;;;13.97;9.90;;;;;;;;;;4945503;29;20199;-71
2021/11/13 09:28:14;;;;;;;15.53;10.73;;;;;;;;;;4919669;29;20217;-71
2021/11/13 09:31:18;;;;;;;15.33;11.20;;;;;;;;;;4919193;29;20224;-71
2021/11/13 09:34:24;;;;;;;17.13;11.70;;;;;;;;;;4930964;29;20199;-72
2021/11/13 09:37:29;;;;;;;21.20;14.13;;;;;;;;;;4957173;29;20195;-72
2021/11/13 09:40:33;;;;;;;34.07;19.77;;;;;;;;;;4949909;29;20215;-72
2021/11/13 09:43:40;;;;;;;19.30;12.50;;;;;;;;;;4918967;29;20189;-72
2021/11/13 09:46:46;;;;;;;32.00;18.70;;;;;;;;;;4919151;29;20189;-72
2021/11/13 09:49:51;;;;;;;40.43;22.13;;;;;;;;;;4934136;29;20212;-72
2021/11/13 09:52:56;;;;;;;45.13;25.63;;;;;;;;;;4937886;29;20176;-71
2021/11/13 09:56:00;;;;;;;30.37;16.90;;;;;;;;;;4917930;29;20189;-72
2021/11/13 09:59:05;;;;;;;65.17;32.27;;;;;;;;;;4942332;29;20199;-72
2021/11/13 10:02:09;;;;;;;17.00;11.70;;;;;;;;;;4937508;29;20726;-72
2021/11/13 10:05:14;;;;;;;18.97;12.03;;;;;;;;;;4937582;29;20647;-72
2021/11/13 10:08:20;;;;;;;41.33;20.13;;;;;;;;;;4945241;29;20223;-71
2021/11/13 10:11:25;;;;;;;42.23;21.53;;;;;;;;;;4938968;29;20227;-72
2021/11/13 10:14:36;;;;;;;26.60;16.03;;;;;;;;;;4936309;29;20200;-72
2021/11/13 10:17:40;;;;;;;19.23;13.07;;;;;;;;;;4937561;29;20184;-72
2021/11/13 10:20:59;;;;;;;35.57;23.43;;;;;;;;;;4947992;29;20227;-72
2021/11/13 10:24:11;;;;;;;15.87;11.23;;;;;;;;;;4956583;29;20209;-75
2021/11/13 10:27:16;;;;;;;16.87;13.10;;;;;;;;;;4942133;29;20227;-75
2021/11/13 10:30:22;;;;;;;13.47;9.47;;;;;;;;;;4938545;29;20213;-75
2021/11/13 10:33:33;;;;;;;16.17;10.70;;;;;;;;;;4952571;29;20191;-76
2021/11/13 10:36:44;;;;;;;14.57;10.20;;;;;;;;;;4953113;29;20512;-75
2021/11/13 10:39:49;;;;;;;14.63;10.80;;;;;;;;;;4951105;29;20555;-75
2021/11/13 10:43:03;;;;;;;16.53;11.70;;;;;;;;;;4953102;29;20195;-76
2021/11/13 10:46:11;;;;;;;15.60;11.43;;;;;;;;;;4936578;29;20687;-75
2021/11/13 10:49:16;;;;;;;14.77;11.33;;;;;;;;;;4932422;29;20698;-75
2021/11/13 10:52:21;;;;;;;16.63;11.60;;;;;;;;;;4919909;29;20226;-75
2021/11/13 10:55:25;;;;;;;16.07;11.10;;;;;;;;;;4921255;29;20184;-75
2021/11/13 10:58:44;;;;;;;17.27;11.90;;;;;;;;;;4932814;29;20188;-76
2021/11/13 11:01:49;;;;;;;15.00;11.40;;;;;;;;;;4948606;29;20711;-76
2021/11/13 11:04:54;;;;;;;14.17;9.73;;;;;;;;;;4945067;29;20188;-75
2021/11/13 11:08:31;;;;;;;16.77;11.20;;;;;;;;;;4935003;29;20199;-75
2021/11/13 11:11:36;;;;;;;15.67;11.10;;;;;;;;;;4947581;29;20231;-75
2021/11/13 11:14:50;;;;;;;15.77;10.37;;;;;;;;;;4951873;29;20240;-75
2021/11/13 11:17:58;;;;;;;14.53;10.93;;;;;;;;;;4941278;29;20191;-75
2021/11/13 11:21:02;;;;;;;16.20;11.00;;;;;;;;;;4951103;29;20219;-75
2021/11/13 11:24:11;;;;;;;15.23;10.83;;;;;;;;;;4952452;29;20647;-75
2021/11/13 11:27:36;;;;;;;15.63;10.80;;;;;;;;;;4950310;28;20191;-75
2021/11/13 11:30:49;;;;;;;15.17;10.40;;;;;;;;;;4922113;29;20235;-75
2021/11/13 11:33:53;;;;;;;15.03;10.43;;;;;;;;;;4947659;29;20210;-75
2021/11/13 11:37:04;;;;;;;13.20;9.30;;;;;;;;;;4931454;29;20188;-76
2021/11/13 11:40:14;;;;;;;14.07;10.47;;;;;;;;;;4936319;29;20187;-75
2021/11/13 11:43:19;;;;;;;14.47;10.73;;;;;;;;;;4916441;29;20586;-75
2021/11/13 11:46:23;;;;;;;15.03;10.60;;;;;;;;;;4921705;29;20184;-75
2021/11/13 11:49:27;;;;;;;14.67;10.80;;;;;;;;;;4933612;29;20212;-75
2021/11/13 11:52:33;;;;;;;22.60;14.13;;;;;;;;;;4935569;29;20223;-75
2021/11/13 11:55:41;;;;;;;15.10;11.47;;;;;;;;;;4922080;29;20185;-75
2021/11/13 11:58:45;;;;;;;13.53;10.10;;;;;;;;;;4914915;29;20185;-76
2021/11/13 12:02:04;;;;;;;15.63;11.07;;;;;;;;;;4938711;29;20215;-76
2021/11/13 12:05:16;;;;;;;17.33;11.13;;;;;;;;;;4941598;29;20195;-75
2021/11/13 12:08:22;;;;;;;12.50;10.27;;;;;;;;;;4946516;29;20192;-75
2021/11/13 12:11:32;;;;;;;15.13;11.57;;;;;;;;;;4932428;29;20216;-75
2021/11/13 12:14:39;;;;;;;15.73;11.80;;;;;;;;;;4949799;29;20207;-76
2021/11/13 12:17:44;;;;;;;15.60;11.97;;;;;;;;;;4945306;29;20219;-75
2021/11/13 12:21:09;;;;;;;15.53;11.27;;;;;;;;;;4941949;29;20709;-76
2021/11/13 12:24:13;;;;;;;15.10;11.23;;;;;;;;;;4950283;29;20192;-75
2021/11/13 12:27:27;;;;;;;16.67;11.43;;;;;;;;;;4950741;29;20192;-75
2021/11/13 12:31:09;;;;;;;16.10;11.53;;;;;;;;;;4925870;29;20215;-75
2021/11/13 12:34:16;;;;;;;17.00;12.67;;;;;;;;;;4949614;29;20200;-75
2021/11/13 12:37:23;;;;;;;15.87;11.87;;;;;;;;;;4950100;29;20184;-75
2021/11/13 12:40:38;;;;;;;16.70;12.33;;;;;;;;;;4946062;29;20195;-75
2021/11/13 12:43:52;;;;;;;14.07;11.23;;;;;;;;;;4920751;29;20578;-76
2021/11/13 12:47:00;;;;;;;16.93;11.83;;;;;;;;;;4953330;29;20207;-75
2021/11/13 12:50:07;;;;;;;16.93;12.00;;;;;;;;;;4930506;29;20219;-76
2021/11/13 12:53:14;;;;;;;15.77;11.77;;;;;;;;;;4951700;29;20256;-76
2021/11/13 12:56:57;;;;;;;15.67;12.07;;;;;;;;;;4954464;29;20203;-76
2021/11/13 13:00:30;;;;;;;16.43;11.63;;;;;;;;;;4930151;29;20191;-76
2021/11/13 13:03:36;;;;;;;16.67;11.23;;;;;;;;;;4933731;29;20187;-75
2021/11/13 13:06:42;;;;;;;17.17;12.57;;;;;;;;;;4953604;29;20195;-76
2021/11/13 13:10:10;;;;;;;16.67;11.63;;;;;;;;;;4953950;29;20211;-76
2021/11/13 13:13:17;;;;;;;15.53;12.07;;;;;;;;;;4915926;29;20211;-76
2021/11/13 13:16:26;;;;;;;17.33;12.00;;;;;;;;;;4915893;29;20526;-75
2021/11/13 13:19:33;;;;;;;16.47;11.90;;;;;;;;;;4942543;29;20199;-76
2021/11/13 13:22:38;;;;;;;16.90;11.73;;;;;;;;;;4949166;29;20560;-75
2021/11/13 13:25:48;;;;;;;16.47;12.67;;;;;;;;;;4954975;29;20195;-75
2021/11/13 13:28:52;;;;;;;17.73;12.77;;;;;;;;;;4916965;29;20189;-76
2021/11/13 13:32:02;;;;;;;19.07;13.27;;;;;;;;;;4949550;29;20230;-76
2021/11/13 13:35:10;;;;;;;17.93;12.87;;;;;;;;;;4953913;29;20188;-75
2021/11/13 13:38:16;;;;;;;19.10;13.03;;;;;;;;;;4953559;29;20603;-76
2021/11/13 13:41:21;;;;;;;17.83;12.87;;;;;;;;;;4951533;29;20219;-76
2021/11/13 13:44:24;;;;;;;20.53;12.07;;;;;;;;;;4954675;28;20685;-75
2021/11/13 13:47:29;;;;;;;17.40;13.23;;;;;;;;;;4944566;29;20192;-75
2021/11/13 13:50:33;;;;;;;21.20;13.47;;;;;;;;;;4915527;29;20797;-75
2021/11/13 13:54:12;;;;;;;18.33;14.47;;;;;;;;;;4915243;29;20176;-75
2021/11/13 13:57:18;;;;;;;20.13;12.60;;;;;;;;;;4926842;29;20556;-76
2021/11/13 14:00:22;;;;;;;19.77;13.67;;;;;;;;;;4951568;29;20192;-75
2021/11/13 14:03:27;;;;;;;27.37;15.37;;;;;;;;;;4952820;29;20192;-76
2021/11/13 14:06:31;;;;;;;22.27;15.07;;;;;;;;;;4943652;29;20196;-75
2021/11/13 14:09:35;;;;;;;23.87;15.27;;;;;;;;;;4932822;29;20224;-76
2021/11/13 14:12:44;;;;;;;23.90;14.50;;;;;;;;;;4933867;29;20204;-76
2021/11/13 14:15:57;;;;;;;18.57;13.37;;;;;;;;;;4925034;29;20192;-75
2021/11/13 14:19:13;;;;;;;19.20;13.60;;;;;;;;;;4913785;29;20201;-76
2021/11/13 14:22:20;;;;;;;19.67;13.83;;;;;;;;;;4915699;29;20224;-76
2021/11/13 14:25:26;;;;;;;30.47;16.13;;;;;;;;;;4934865;29;20219;-76
2021/11/13 14:28:40;;;;;;;32.33;17.63;;;;;;;;;;4932740;29;20188;-76
2021/11/13 14:31:49;;;;;;;28.07;17.67;;;;;;;;;;4926437;29;20220;-75
2021/11/13 14:34:53;;;;;;;23.17;15.27;;;;;;;;;;4933435;29;20204;-75
2021/11/13 14:37:57;;;;;;;19.17;14.00;;;;;;;;;;4942984;29;20196;-75
2021/11/13 14:41:08;;;;;;;18.40;13.77;;;;;;;;;;4933080;29;20224;-76
2021/11/13 14:44:14;;;;;;;18.83;14.30;;;;;;;;;;4913364;29;20205;-76
2021/11/13 14:47:21;;;;;;;18.43;13.80;;;;;;;;;;4917611;29;20205;-76
2021/11/13 14:50:26;;;;;;;19.80;15.27;;;;;;;;;;4947781;29;20208;-75
2021/11/13 14:53:30;;;;;;;19.17;14.00;;;;;;;;;;4945478;29;20211;-76
2021/11/13 14:56:34;;;;;;;18.83;13.70;;;;;;;;;;4950807;29;20675;-76
2021/11/13 14:59:40;;;;;;;18.97;14.00;;;;;;;;;;4913877;29;20731;-77
2021/11/13 15:02:45;;;;;;;20.57;14.80;;;;;;;;;;4967265;23;20235;-72
2021/11/13 15:05:54;;;;;;;19.80;14.47;;;;;;;;;;4962793;28;20187;-72
2021/11/13 15:09:01;;;;;;;18.57;13.80;;;;;;;;;;4974028;28;20198;-73
2021/11/13 15:12:07;;;;;;;22.07;14.53;;;;;;;;;;4957865;28;20215;-73
2021/11/13 15:15:12;;;;;;;21.10;15.27;;;;;;;;;;4943125;29;20199;-73
2021/11/13 15:18:18;;;;;;;23.57;14.90;;;;;;;;;;4942948;29;20567;-72
2021/11/13 15:21:25;;;;;;;20.07;14.63;;;;;;;;;;4924832;29;20699;-73
2021/11/13 15:24:29;;;;;;;21.00;14.77;;;;;;;;;;4955566;29;20203;-72
2021/11/13 15:27:32;;;;;;;20.80;14.60;;;;;;;;;;4942104;29;20203;-73
2021/11/13 15:30:40;;;;;;;23.07;16.43;;;;;;;;;;4942494;29;20234;-73
2021/11/13 15:33:44;;;;;;;20.60;14.80;;;;;;;;;;4955128;29;20203;-71
2021/11/13 15:37:18;;;;;;;22.50;16.17;;;;;;;;;;4942944;29;20207;-73
2021/11/13 15:40:26;;;;;;;22.90;15.87;;;;;;;;;;4954739;29;20535;-71
2021/11/13 15:43:31;;;;;;;22.57;16.47;;;;;;;;;;4955120;29;20180;-71
2021/11/13 15:46:35;;;;;;;23.53;17.00;;;;;;;;;;4954873;29;20548;-71
2021/11/13 15:49:40;;;;;;;25.53;17.33;;;;;;;;;;4954784;29;20187;-71
2021/11/13 15:52:47;;;;;;;25.57;16.40;;;;;;;;;;4955582;29;20623;-73
2021/11/13 15:55:51;;;;;;;24.53;17.20;;;;;;;;;;4913451;29;20185;-73
2021/11/13 15:58:58;;;;;;;24.60;16.87;;;;;;;;;;4924058;29;20184;-71
2021/11/13 16:02:02;;;;;;;23.23;17.10;;;;;;;;;;4949624;29;20230;-72
2021/11/13 16:05:07;;;;;;;27.93;18.53;;;;;;;;;;4954710;29;20199;-72
2021/11/13 16:08:11;;;;;;;25.47;17.67;;;;;;;;;;4943294;29;20188;-71
2021/11/13 16:11:15;;;;;;;24.37;15.93;;;;;;;;;;4942882;29;20576;-71
2021/11/13 16:14:20;;;;;;;24.27;16.20;;;;;;;;;;4933641;29;20195;-72
2021/11/13 16:17:24;;;;;;;26.33;16.57;;;;;;;;;;4947791;29;20188;-71
2021/11/13 16:20:28;;;;;;;27.17;16.47;;;;;;;;;;4958256;29;20187;-71
2021/11/13 16:23:33;;;;;;;26.70;17.00;;;;;;;;;;4945353;29;20184;-71
2021/11/13 16:26:37;;;;;;;22.17;15.50;;;;;;;;;;4958578;29;20183;-71
2021/11/13 16:29:41;;;;;;;27.77;16.77;;;;;;;;;;4958739;29;20179;-72
2021/11/13 16:32:45;;;;;;;23.37;16.30;;;;;;;;;;4958382;29;20191;-71
2021/11/13 16:35:53;;;;;;;25.80;16.07;;;;;;;;;;4958924;29;20180;-71
2021/11/13 16:38:57;;;;;;;27.77;17.43;;;;;;;;;;4946826;29;20175;-72
2021/11/13 16:42:03;;;;;;;25.53;17.27;;;;;;;;;;4958425;28;20211;-72
2021/11/13 16:45:07;;;;;;;30.57;17.40;;;;;;;;;;4958481;29;20184;-72
2021/11/13 16:48:12;;;;;;;28.53;18.07;;;;;;;;;;4946543;29;20179;-72
2021/11/13 16:51:24;;;;;;;22.63;17.53;;;;;;;;;;4946241;29;20223;-73
2021/11/13 16:54:28;;;;;;;26.33;17.17;;;;;;;;;;4935629;29;20184;-72
2021/11/13 16:57:34;;;;;;;25.20;17.13;;;;;;;;;;4958289;29;20519;-72
2021/11/13 17:00:44;;;;;;;30.03;16.97;;;;;;;;;;4957857;28;20220;-71
2021/11/13 17:03:48;;;;;;;25.40;17.80;;;;;;;;;;4958130;29;20199;-72
2021/11/13 17:06:53;;;;;;;25.30;17.23;;;;;;;;;;4957819;29;20587;-73
2021/11/13 17:09:58;;;;;;;25.00;15.33;;;;;;;;;;4958003;29;20528;-73
2021/11/13 17:13:02;;;;;;;20.50;14.17;;;;;;;;;;4957992;29;20180;-73
2021/11/13 17:16:07;;;;;;;23.43;16.40;;;;;;;;;;4935251;29;20183;-72
2021/11/13 17:19:13;;;;;;;24.50;16.63;;;;;;;;;;4957662;29;20206;-73
2021/11/13 17:22:17;;;;;;;25.43;16.53;;;;;;;;;;4957706;28;20215;-73
2021/11/13 17:25:22;;;;;;;27.00;16.87;;;;;;;;;;4956930;28;20203;-72
2021/11/13 17:28:26;;;;;;;27.70;16.17;;;;;;;;;;4957624;29;20199;-72
2021/11/13 17:31:30;;;;;;;26.07;17.30;;;;;;;;;;4945999;29;20223;-72
2021/11/13 17:34:35;;;;;;;24.17;16.77;;;;;;;;;;4957382;29;20200;-72
2021/11/13 17:37:42;;;;;;;28.07;17.33;;;;;;;;;;4957302;29;20179;-72
2021/11/13 17:40:46;;;;;;;29.50;17.63;;;;;;;;;;4945330;28;20223;-71
2021/11/13 17:43:51;;;;;;;24.47;17.43;;;;;;;;;;4945573;29;20188;-72
2021/11/13 17:46:55;;;;;;;27.90;18.00;;;;;;;;;;4955389;29;20555;-72
2021/11/13 17:50:00;;;;;;;29.33;17.17;;;;;;;;;;4942030;29;20188;-73
2021/11/13 17:53:08;;;;;;;28.57;17.90;;;;;;;;;;4941698;29;20176;-73
2021/11/13 17:56:12;;;;;;;27.07;17.43;;;;;;;;;;4911468;29;20193;-72
2021/11/13 17:59:17;;;;;;;26.67;16.97;;;;;;;;;;4922650;29;20189;-72
2021/11/13 18:02:24;;;;;;;24.60;16.43;;;;;;;;;;4934138;29;20228;-73
2021/11/13 18:05:30;;;;;;;28.47;16.43;;;;;;;;;;4934187;29;20185;-72
2021/11/13 18:08:35;;;;;;;27.23;16.30;;;;;;;;;;4949608;29;20191;-73
2021/11/13 18:11:40;;;;;;;24.80;15.87;;;;;;;;;;4933629;29;20232;-73
2021/11/13 18:14:44;;;;;;;24.10;15.77;;;;;;;;;;4940234;29;20188;-73
2021/11/13 18:17:50;;;;;;;26.50;16.87;;;;;;;;;;4940810;29;20199;-73
2021/11/13 18:20:54;;;;;;;24.40;15.10;;;;;;;;;;4952526;29;20211;-73
2021/11/13 18:23:59;;;;;;;27.03;17.10;;;;;;;;;;4952956;29;20195;-73
2021/11/13 18:27:03;;;;;;;26.20;15.77;;;;;;;;;;4945673;29;20200;-73
2021/11/13 18:30:10;;;;;;;26.60;16.03;;;;;;;;;;4952465;29;20180;-73
2021/11/13 18:33:20;;;;;;;25.97;16.73;;;;;;;;;;4941009;29;20691;-73
2021/11/13 18:36:25;;;;;;;24.00;15.70;;;;;;;;;;4944314;28;20199;-73
2021/11/13 18:39:29;;;;;;;24.70;15.80;;;;;;;;;;4952812;29;20192;-73
2021/11/13 18:42:33;;;;;;;25.07;16.10;;;;;;;;;;4952202;29;20215;-73
2021/11/13 18:45:40;;;;;;;22.73;14.87;;;;;;;;;;4952456;29;20188;-73
2021/11/13 18:48:45;;;;;;;26.00;16.20;;;;;;;;;;4952436;29;20594;-73
2021/11/13 18:51:50;;;;;;;23.80;15.93;;;;;;;;;;4933146;29;20227;-73
2021/11/13 18:54:54;;;;;;;23.23;15.73;;;;;;;;;;4921291;29;20188;-73
2021/11/13 18:57:58;;;;;;;24.27;15.97;;;;;;;;;;4929674;29;20191;-73
2021/11/13 19:01:03;;;;;;;23.80;15.43;;;;;;;;;;4929530;29;20215;-73
2021/11/13 19:04:13;;;;;;;23.57;14.57;;;;;;;;;;4940508;29;20184;-72
2021/11/13 19:07:18;;;;;;;22.17;13.63;;;;;;;;;;4939868;29;20203;-73
2021/11/13 19:10:22;;;;;;;22.20;14.77;;;;;;;;;;4929191;29;20654;-73
2021/11/13 19:13:27;;;;;;;23.73;15.87;;;;;;;;;;4940380;29;20706;-73
2021/11/13 19:16:31;;;;;;;18.93;12.90;;;;;;;;;;4939861;29;20195;-73
2021/11/13 19:19:36;;;;;;;26.57;15.80;;;;;;;;;;4932575;29;20183;-73
2021/11/13 19:22:40;;;;;;;24.80;15.70;;;;;;;;;;4932850;29;20184;-73
2021/11/13 19:25:45;;;;;;;22.37;15.93;;;;;;;;;;4941915;29;20282;-73
2021/11/13 19:28:52;;;;;;;22.40;15.47;;;;;;;;;;4951296;29;20682;-73
2021/11/13 19:31:56;;;;;;;23.63;15.43;;;;;;;;;;4951329;29;20223;-73
2021/11/13 19:35:01;;;;;;;22.00;14.20;;;;;;;;;;4939731;29;20199;-73
2021/11/13 19:38:05;;;;;;;17.40;12.17;;;;;;;;;;4951641;29;20206;-73
2021/11/13 19:41:10;;;;;;;26.90;15.87;;;;;;;;;;4951821;29;20633;-73
2021/11/13 19:44:14;;;;;;;24.90;15.33;;;;;;;;;;4928309;29;20228;-73
2021/11/13 19:47:18;;;;;;;25.77;16.00;;;;;;;;;;4951599;29;20511;-73
2021/11/13 19:50:25;;;;;;;25.80;15.67;;;;;;;;;;4951443;29;20655;-73
2021/11/13 19:53:29;;;;;;;48.23;27.87;;;;;;;;;;4951644;29;20194;-73
2021/11/13 19:56:33;;;;;;;42.13;28.23;;;;;;;;;;4939595;29;20194;-73
2021/11/13 19:59:37;;;;;;;45.97;29.37;;;;;;;;;;4951229;29;20199;-73
2021/11/13 20:02:42;;;;;;;39.57;23.60;;;;;;;;;;4950675;29;20214;-73
2021/11/13 20:05:47;;;;;;;26.57;17.37;;;;;;;;;;4950756;29;20207;-72
2021/11/13 20:08:51;;;;;;;24.97;15.20;;;;;;;;;;4951059;29;20195;-73
2021/11/13 20:11:55;;;;;;;23.20;15.97;;;;;;;;;;4939370;29;20234;-72
2021/11/13 20:15:01;;;;;;;27.57;16.20;;;;;;;;;;4933584;29;20658;-73
2021/11/13 20:18:06;;;;;;;25.97;16.50;;;;;;;;;;4938764;29;20195;-73
2021/11/13 20:21:12;;;;;;;25.53;15.73;;;;;;;;;;4932060;29;20598;-73
2021/11/13 20:24:16;;;;;;;28.10;17.13;;;;;;;;;;4939385;29;20202;-72
2021/11/13 20:27:21;;;;;;;22.00;16.27;;;;;;;;;;4939177;29;20198;-73
2021/11/13 20:30:25;;;;;;;23.80;15.57;;;;;;;;;;4950208;29;20697;-73
2021/11/13 20:33:30;;;;;;;25.57;16.63;;;;;;;;;;4931796;29;20219;-73
2021/11/13 20:36:35;;;;;;;27.50;16.63;;;;;;;;;;4931886;29;20197;-73
2021/11/13 20:39:42;;;;;;;24.87;15.73;;;;;;;;;;4947999;29;20199;-73
2021/11/13 20:42:46;;;;;;;24.80;16.43;;;;;;;;;;4950635;29;20183;-73
2021/11/13 20:45:57;;;;;;;24.00;16.33;;;;;;;;;;4938518;29;20206;-73
2021/11/13 20:54:33;;;;;;;26.13;16.90;;;;;;;;;;4951353;29;20210;-73
2021/11/13 20:58:14;;;;;;;24.43;16.77;;;;;;;;;;4930969;29;20204;-73
2021/11/13 21:01:18;;;;;;;27.87;16.43;;;;;;;;;;4911464;29;20235;-73
2021/11/13 21:04:28;;;;;;;23.17;15.80;;;;;;;;;;4913598;29;20187;-73
2021/11/13 21:07:32;;;;;;;24.00;15.70;;;;;;;;;;4941927;29;20187;-73
2021/11/13 21:10:36;;;;;;;26.27;16.20;;;;;;;;;;4919716;29;20223;-73
2021/11/13 21:13:41;;;;;;;22.43;15.90;;;;;;;;;;4934029;29;20215;-73
2021/11/13 21:16:47;;;;;;;23.60;15.60;;;;;;;;;;4934772;29;20204;-72
2021/11/13 21:19:52;;;;;;;23.93;15.67;;;;;;;;;;4946556;29;20204;-72
2021/11/13 21:22:57;;;;;;;26.63;16.63;;;;;;;;;;4953384;29;20562;-72
2021/11/13 21:26:02;;;;;;;27.90;16.73;;;;;;;;;;4930911;29;20180;-72
2021/11/13 21:29:07;;;;;;;25.27;15.93;;;;;;;;;;4934650;29;20528;-72
2021/11/13 21:32:11;;;;;;;25.80;16.00;;;;;;;;;;4934006;29;20235;-72
2021/11/13 21:35:16;;;;;;;26.63;15.97;;;;;;;;;;4936224;29;20191;-73
2021/11/13 21:38:21;;;;;;;27.57;16.17;;;;;;;;;;4941787;29;20694;-72
2021/11/13 21:41:25;;;;;;;24.27;15.67;;;;;;;;;;4922723;29;20276;-73
2021/11/13 21:44:31;;;;;;;22.73;15.03;;;;;;;;;;4928197;29;20556;-73
2021/11/13 21:47:35;;;;;;;23.80;15.30;;;;;;;;;;4941002;29;20562;-73
2021/11/13 21:50:41;;;;;;;26.43;16.77;;;;;;;;;;4937926;29;20221;-73
2021/11/13 21:53:48;;;;;;;25.90;15.73;;;;;;;;;;4934143;29;20240;-72
2021/11/13 21:56:53;;;;;;;23.53;16.03;;;;;;;;;;4939873;29;20212;-72
2021/11/13 21:59:57;;;;;;;23.87;15.10;;;;;;;;;;4941325;29;20560;-72
2021/11/13 22:03:02;;;;;;;24.90;15.63;;;;;;;;;;4940947;29;20216;-72
2021/11/13 22:06:07;;;;;;;21.40;15.13;;;;;;;;;;4940596;29;20207;-73
2021/11/13 22:09:12;;;;;;;24.93;15.70;;;;;;;;;;4950865;29;20187;-72
2021/11/13 22:12:16;;;;;;;19.17;13.67;;;;;;;;;;4916072;29;20234;-73
2021/11/13 22:15:20;;;;;;;20.90;14.50;;;;;;;;;;4952632;29;20198;-72
2021/11/13 22:18:24;;;;;;;22.20;14.80;;;;;;;;;;4929212;29;20699;-73
2021/11/13 22:21:29;;;;;;;21.80;15.03;;;;;;;;;;4940680;29;20594;-73
2021/11/13 22:24:35;;;;;;;24.50;15.23;;;;;;;;;;4921796;29;20211;-72
2021/11/13 22:27:42;;;;;;;23.20;14.87;;;;;;;;;;4939917;29;20194;-71
2021/11/13 22:30:49;;;;;;;19.80;13.17;;;;;;;;;;4951530;29;20226;-72
2021/11/13 22:33:53;;;;;;;22.13;14.30;;;;;;;;;;4939094;29;20705;-73
2021/11/13 22:36:59;;;;;;;22.87;15.57;;;;;;;;;;4951966;29;20464;-73
2021/11/13 22:40:05;;;;;;;39.30;20.50;;;;;;;;;;4952076;29;20936;-73
2021/11/13 22:43:13;;;;;;;30.83;17.10;;;;;;;;;;4928807;29;20184;-72
2021/11/13 22:46:17;;;;;;;21.27;14.90;;;;;;;;;;4940213;29;20208;-73
2021/11/13 22:49:22;;;;;;;22.93;15.60;;;;;;;;;;4952723;29;20219;-73
2021/11/13 22:52:26;;;;;;;23.20;16.10;;;;;;;;;;4947226;23;20230;-75
2021/11/13 22:55:30;;;;;;;25.60;16.47;;;;;;;;;;4940888;29;20211;-76
2021/11/13 22:58:35;;;;;;;24.00;16.73;;;;;;;;;;4922582;29;20195;-76
2021/11/13 23:01:48;;;;;;;22.53;15.90;;;;;;;;;;4952241;29;20235;-76
2021/11/13 23:04:53;;;;;;;24.77;17.07;;;;;;;;;;4926943;29;20195;-76
2021/11/13 23:07:57;;;;;;;24.53;16.60;;;;;;;;;;4923833;29;20281;-75
2021/11/13 23:11:06;;;;;;;23.87;16.43;;;;;;;;;;4933587;29;20225;-76
2021/11/13 23:14:10;;;;;;;24.70;16.80;;;;;;;;;;4954738;29;20223;-75
2021/11/13 23:17:17;;;;;;;22.10;15.63;;;;;;;;;;4941177;29;20196;-76
2021/11/13 23:20:22;;;;;;;28.80;16.63;;;;;;;;;;4944363;29;20572;-75
2021/11/13 23:23:28;;;;;;;24.47;16.33;;;;;;;;;;4948942;28;20571;-75
2021/11/13 23:26:32;;;;;;;23.40;15.60;;;;;;;;;;4924318;29;20200;-75
2021/11/13 23:29:38;;;;;;;23.30;15.27;;;;;;;;;;4936460;29;20187;-75
2021/11/13 23:32:42;;;;;;;25.13;15.87;;;;;;;;;;4940919;29;20227;-76
2021/11/13 23:35:46;;;;;;;25.33;16.87;;;;;;;;;;4936060;29;20196;-75
2021/11/13 23:38:51;;;;;;;24.37;16.30;;;;;;;;;;4936316;29;20271;-75
2021/11/13 23:41:55;;;;;;;28.57;17.80;;;;;;;;;;4951790;29;20219;-76
2021/11/13 23:44:59;;;;;;;24.17;16.10;;;;;;;;;;4936565;29;20195;-75
2021/11/13 23:48:04;;;;;;;24.47;16.63;;;;;;;;;;4933095;29;20198;-75
2021/11/13 23:51:08;;;;;;;23.10;16.60;;;;;;;;;;4951477;29;20228;-76
2021/11/13 23:54:13;;;;;;;27.80;17.70;;;;;;;;;;4954947;29;20231;-76
2021/11/13 23:57:20;;;;;;;24.53;16.63;;;;;;;;;;4932091;29;20203;-76
